createdAt,value
2022-10-11T00:01:03.072Z,9.60
2022-10-11T00:06:03.428Z,9.58
2022-10-11T00:11:03.159Z,9.64
2022-10-11T00:16:03.196Z,9.73
2022-10-11T00:21:02.772Z,9.85
2022-10-11T00:26:03.308Z,10.10
2022-10-11T00:31:03.049Z,10.26
2022-10-11T00:36:03.007Z,10.33
2022-10-11T00:41:02.475Z,10.47
2022-10-11T00:46:02.943Z,10.63
2022-10-11T00:51:02.870Z,10.74
2022-10-11T00:56:02.785Z,10.84
2022-10-11T01:01:02.353Z,10.98
2022-10-11T01:06:02.600Z,11.06
2022-10-11T01:11:02.105Z,11.03
2022-10-11T01:16:02.408Z,11.10
2022-10-11T01:21:01.967Z,11.14
2022-10-11T01:26:02.354Z,11.24
2022-10-11T01:31:01.849Z,11.39
2022-10-11T01:36:02.100Z,11.50
2022-10-11T01:41:01.845Z,11.61
2022-10-11T01:46:01.971Z,11.72
2022-10-11T01:51:01.566Z,11.77
2022-10-11T01:56:01.901Z,11.83
2022-10-11T02:01:01.540Z,11.97
2022-10-11T02:06:01.535Z,12.08
2022-10-11T02:11:01.292Z,12.21
2022-10-11T02:16:01.259Z,12.29
2022-10-11T02:21:01.174Z,12.38
2022-10-11T02:26:01.260Z,12.59
2022-10-11T02:31:01.022Z,12.69
2022-10-11T02:36:08.417Z,12.74
2022-10-11T02:41:08.004Z,12.85
2022-10-11T02:46:00.800Z,12.92
2022-10-11T02:51:00.752Z,13.03
2022-10-11T02:56:00.667Z,13.17
2022-10-11T03:01:00.604Z,13.33
2022-10-11T03:06:00.721Z,13.47
2022-10-11T03:11:00.509Z,13.58
2022-10-11T03:16:03.599Z,13.58
2022-10-11T03:21:00.369Z,13.56
2022-10-11T03:26:00.292Z,13.63
2022-10-11T03:31:00.246Z,13.67
2022-10-11T03:36:00.168Z,13.69
2022-10-11T03:41:00.101Z,13.56
2022-10-11T03:46:00.059Z,13.44
2022-10-11T03:50:59.965Z,13.33
2022-10-11T03:56:03.411Z,13.32
2022-10-11T04:01:00.821Z,13.25
2022-10-11T04:05:59.811Z,13.11
2022-10-11T04:10:59.704Z,12.99
2022-10-11T04:15:59.646Z,12.82
2022-10-11T04:20:59.552Z,12.81
2022-10-11T04:25:59.476Z,12.81
2022-10-11T04:30:59.438Z,12.69
2022-10-11T04:35:59.378Z,12.52
2022-10-11T04:40:59.280Z,12.39
2022-10-11T04:45:59.229Z,12.20
2022-10-11T04:50:59.318Z,12.05
2022-10-11T04:55:59.073Z,12.01
2022-10-11T05:00:59.012Z,11.99
2022-10-11T05:06:03.151Z,11.90
2022-10-11T05:10:59.909Z,11.70
2022-10-11T05:15:58.853Z,11.50
2022-10-11T05:20:58.767Z,11.39
2022-10-11T05:25:58.694Z,11.34
2022-10-11T05:30:58.661Z,11.16
2022-10-11T05:35:58.557Z,10.96
2022-10-11T05:40:58.473Z,10.88
2022-10-11T05:45:58.456Z,10.63
2022-10-11T05:50:58.426Z,10.46
2022-10-11T05:55:58.455Z,10.40
2022-10-11T06:00:58.259Z,10.32
2022-10-11T06:05:58.247Z,10.34
2022-10-11T06:10:58.103Z,10.33
2022-10-11T06:16:05.902Z,11.20
2022-10-11T06:20:57.935Z,11.85
2022-10-11T06:25:57.866Z,12.23
2022-10-11T06:30:57.810Z,12.49
2022-10-11T06:35:57.736Z,12.95
2022-10-11T06:40:57.687Z,13.51
2022-10-11T06:45:57.599Z,13.52
2022-10-11T06:50:59.990Z,13.74
2022-10-11T06:55:57.469Z,14.35
2022-10-11T07:00:57.565Z,14.68
2022-10-11T07:06:02.117Z,14.90
2022-10-11T07:10:58.274Z,15.09
2022-10-11T07:15:57.204Z,15.42
2022-10-11T07:20:57.158Z,16.09
2022-10-11T07:25:57.075Z,16.14
2022-10-11T07:30:57.020Z,16.16
2022-10-11T07:35:56.978Z,16.16
2022-10-11T07:40:56.919Z,15.64
2022-10-11T07:45:56.842Z,16.04
2022-10-11T07:50:57.033Z,16.06
2022-10-11T07:55:56.702Z,16.27
2022-10-11T08:00:56.785Z,16.59
2022-10-11T08:05:56.581Z,16.23
2022-10-11T08:10:56.510Z,16.06
2022-10-11T08:15:56.422Z,16.27
2022-10-11T08:20:56.480Z,16.20
2022-10-11T08:25:56.317Z,16.42
2022-10-11T08:30:56.253Z,16.07
2022-10-11T08:35:56.168Z,15.64
2022-10-11T08:40:56.109Z,15.64
2022-10-11T08:45:56.049Z,15.24
2022-10-11T08:50:55.969Z,15.57
2022-10-11T08:55:56.222Z,15.59
2022-10-11T09:00:55.953Z,16.00
2022-10-11T09:05:55.826Z,16.15
2022-10-11T09:10:55.952Z,16.25
2022-10-11T09:15:55.669Z,16.33
2022-10-11T09:20:55.635Z,16.59
2022-10-11T09:25:55.514Z,16.77
2022-10-11T09:30:55.441Z,16.90
2022-10-11T09:35:55.372Z,16.78
2022-10-11T09:40:55.316Z,16.35
2022-10-11T09:45:55.266Z,16.53
2022-10-11T09:50:55.192Z,16.35
2022-10-11T09:55:55.115Z,16.83
2022-10-11T10:00:55.053Z,16.31
2022-10-11T10:05:54.978Z,16.70
2022-10-11T10:10:59.261Z,16.80
2022-10-11T10:15:54.987Z,16.93
2022-10-11T10:20:54.844Z,17.67
2022-10-11T10:25:54.687Z,17.04
2022-10-11T10:30:54.649Z,16.80
2022-10-11T10:35:54.546Z,16.73
2022-10-11T10:40:54.511Z,16.11
2022-10-11T10:45:54.417Z,16.22
2022-10-11T10:50:54.439Z,16.15
2022-10-11T10:55:54.424Z,15.85
2022-10-11T11:00:54.626Z,15.70
2022-10-11T11:05:54.170Z,16.14
2022-10-11T11:10:54.125Z,16.88
2022-10-11T11:15:57.946Z,17.17
2022-10-11T11:20:54.141Z,17.62
2022-10-11T11:25:53.882Z,17.46
2022-10-11T11:30:53.817Z,17.33
2022-10-11T11:35:53.734Z,17.63
2022-10-11T11:40:53.674Z,17.76
2022-10-11T11:45:53.629Z,17.74
2022-10-11T11:50:53.536Z,17.59
2022-10-11T11:55:53.472Z,17.00
2022-10-11T12:00:53.415Z,16.71
2022-10-11T12:05:53.338Z,16.86
2022-10-11T12:10:53.286Z,16.99
2022-10-11T12:15:53.219Z,16.98
2022-10-11T12:20:53.129Z,16.73
2022-10-11T12:25:53.093Z,16.86
2022-10-11T12:30:53.080Z,16.85
2022-10-11T12:35:52.951Z,17.08
2022-10-11T12:40:52.952Z,16.99
2022-10-11T12:45:52.838Z,17.17
2022-10-11T12:50:52.762Z,17.30
2022-10-11T12:55:52.690Z,17.25
2022-10-11T13:00:52.658Z,17.32
2022-10-11T13:05:53.846Z,17.44
2022-10-11T13:10:52.677Z,17.25
2022-10-11T13:15:52.424Z,17.36
2022-10-11T13:20:52.344Z,17.47
2022-10-11T13:25:52.329Z,17.40
2022-10-11T13:30:52.210Z,17.22
2022-10-11T13:35:52.164Z,17.26
2022-10-11T13:40:52.114Z,17.30
2022-10-11T13:45:52.016Z,17.32
2022-10-11T13:50:52.182Z,17.46
2022-10-11T13:55:51.906Z,17.38
2022-10-11T14:00:51.805Z,17.28
2022-10-11T14:05:51.768Z,17.36
2022-10-11T14:10:55.792Z,17.33
2022-10-11T14:15:52.664Z,17.47
2022-10-11T14:20:59.009Z,17.41
2022-10-11T14:25:51.478Z,17.47
2022-10-11T14:30:51.416Z,17.44
2022-10-11T14:35:51.363Z,17.18
2022-10-11T14:40:51.291Z,16.93
2022-10-11T14:45:51.239Z,16.83
2022-10-11T14:50:51.184Z,16.60
2022-10-11T14:55:51.102Z,16.63
2022-10-11T15:00:51.051Z,16.48
2022-10-11T15:05:51.015Z,16.42
2022-10-11T15:10:50.908Z,16.35
2022-10-11T15:15:50.870Z,16.25
2022-10-11T15:20:50.776Z,16.27
2022-10-11T15:25:50.702Z,16.16
2022-10-11T15:30:50.669Z,16.07
2022-10-11T15:35:50.560Z,16.18
2022-10-11T15:40:50.508Z,17.25
2022-10-11T15:45:50.482Z,18.10
2022-10-11T15:50:50.338Z,17.95
2022-10-11T15:55:50.265Z,18.15
2022-10-11T16:00:50.249Z,18.00
2022-10-11T16:05:50.197Z,17.53
2022-10-11T16:10:50.095Z,17.48
2022-10-11T16:15:50.007Z,16.63
2022-10-11T16:20:50.025Z,16.03
2022-10-11T16:25:49.879Z,15.20
2022-10-11T16:30:49.833Z,15.67
2022-10-11T16:35:49.733Z,15.01
2022-10-11T16:40:49.917Z,14.86
2022-10-11T16:45:49.849Z,14.68
2022-10-11T16:51:10.563Z,14.02
2022-10-11T16:55:49.537Z,13.43
2022-10-11T17:00:49.613Z,12.84
2022-10-11T17:05:49.343Z,12.54
2022-10-11T17:10:49.273Z,12.13
2022-10-11T17:15:49.242Z,11.75
2022-10-11T17:20:49.480Z,11.43
2022-10-11T17:25:49.188Z,11.11
2022-10-11T17:30:48.998Z,10.81
2022-10-11T17:35:49.041Z,10.60
2022-10-11T17:40:48.929Z,10.42
2022-10-11T17:45:48.837Z,10.25
2022-10-11T17:50:50.785Z,9.99
2022-10-11T17:55:48.703Z,9.78
2022-10-11T18:00:48.728Z,9.99
2022-10-11T18:05:48.588Z,10.19
2022-10-11T18:10:48.596Z,10.19
2022-10-11T18:15:53.368Z,10.21
2022-10-11T18:20:49.332Z,10.01
2022-10-11T18:25:48.294Z,9.64
2022-10-11T18:30:48.257Z,9.34
2022-10-11T18:35:48.156Z,9.23
2022-10-11T18:40:48.434Z,9.12
2022-10-11T18:45:48.024Z,9.12
2022-10-11T18:50:47.958Z,9.01
2022-10-11T18:55:48.070Z,8.93
2022-10-11T19:00:47.914Z,8.88
2022-10-11T19:05:47.738Z,8.86
2022-10-11T19:10:47.761Z,8.84
2022-10-11T19:15:47.688Z,8.79
2022-10-11T19:20:47.690Z,8.73
2022-10-11T19:25:47.497Z,8.50
2022-10-11T19:30:47.521Z,8.36
2022-10-11T19:35:47.760Z,8.35
2022-10-11T19:40:47.312Z,8.35
2022-10-11T19:45:47.291Z,8.30
2022-10-11T19:50:47.545Z,8.28
2022-10-11T19:55:47.097Z,8.35
2022-10-11T20:00:47.241Z,8.15
2022-10-11T20:05:47.000Z,8.10
2022-10-11T20:10:46.885Z,8.00
2022-10-11T20:15:46.815Z,8.02
2022-10-11T20:20:46.864Z,8.00
2022-10-11T20:25:46.768Z,7.97
2022-10-11T20:30:46.689Z,7.85
2022-10-11T20:35:46.617Z,7.82
2022-10-11T20:40:46.527Z,7.77
2022-10-11T20:45:46.529Z,7.66
2022-10-11T20:50:46.374Z,7.59
2022-10-11T20:55:46.305Z,7.38
2022-10-11T21:00:46.272Z,7.22
2022-10-11T21:05:46.368Z,7.24
2022-10-11T21:10:46.100Z,7.19
2022-10-11T21:15:46.076Z,6.99
2022-10-11T21:20:46.159Z,6.99
2022-10-11T21:25:45.903Z,7.15
2022-10-11T21:30:45.832Z,7.12
2022-10-11T21:35:45.747Z,7.12
2022-10-11T21:40:45.834Z,7.17
2022-10-11T21:45:45.632Z,7.01
2022-10-11T21:50:45.544Z,6.86
2022-10-11T21:55:45.564Z,6.84
2022-10-11T22:00:45.413Z,6.83
2022-10-11T22:05:45.372Z,6.66
2022-10-11T22:10:45.598Z,6.66
2022-10-11T22:15:45.261Z,6.69
2022-10-11T22:20:45.332Z,6.73
2022-10-11T22:25:45.167Z,6.66
2022-10-11T22:30:45.033Z,6.68
2022-10-11T22:35:44.967Z,6.61
2022-10-11T22:40:44.981Z,6.54
2022-10-11T22:45:44.837Z,6.44
2022-10-11T22:50:44.767Z,6.33
2022-10-11T22:55:44.752Z,6.36
2022-10-11T23:00:44.631Z,6.30
2022-10-11T23:05:44.589Z,6.32
2022-10-11T23:10:44.568Z,6.28
2022-10-11T23:15:44.633Z,6.10
2022-10-11T23:20:44.422Z,5.85
2022-10-11T23:25:44.304Z,5.85
2022-10-11T23:30:44.234Z,5.86
2022-10-11T23:35:44.173Z,5.77
2022-10-11T23:40:44.179Z,5.66
2022-10-11T23:45:44.062Z,5.52
2022-10-11T23:50:44.017Z,5.56
2022-10-11T23:55:43.914Z,5.49
